Seabulk Challenge — KNJL — position and weather

sailwx.info

Track history (hours):
 
Tides and Currents Weather Stations Pressure Air Temp Water Temp Dewpoint Dewpoint Depression Visibility Wind Speed Wind Dir Waves Ship Positions

Seabulk Challenge

Owner: Seabulk Tankers, Inc., Fort Lauderdale, FL. More information available from US FCC via Universal Licensing System and Coast Guard Vessel Documentation Center.

Last reported at 2016-Aug-25 02:32 UTC. Time now 2016-Aug-25 02:48 UTC.
Position N 39°59' W 075°06'.

Length 192 m; draft 10.1 m.

Type: Tanker. MMSI: 303104000.

Date/timePositionNaut miles runAvg speedWind from/ knotsBaromVisibWave heightAir tempDewpointWater temp
2016-Aug-25 02:32N 39°59' W 075°06'0 0.0
2016-Aug-25 01:32N 39°59' W 075°06'0 0.0
2016-Aug-25 00:32N 39°59' W 075°06'0 0.0
2016-Aug-24 23:32N 39°59' W 075°06'0 0.0
2016-Aug-24 22:32N 39°59' W 075°06'0 0.0
2016-Aug-24 21:32N 39°59' W 075°06'0 0.0
2016-Aug-24 20:32N 39°59' W 075°06'0 0.0
2016-Aug-24 19:32N 39°59' W 075°06'0 0.0
2016-Aug-24 18:32N 39°59' W 075°06'0 0.0
2016-Aug-24 17:32N 39°59' W 075°06'0 0.0
2016-Aug-24 16:32N 39°59' W 075°06'0 0.0
2016-Aug-24 15:32N 39°59' W 075°06'0 0.0
2016-Aug-24 14:29N 39°59' W 075°06'0 0.0
2016-Aug-24 13:29N 39°59' W 075°06'0 0.0
2016-Aug-24 12:32N 39°59' W 075°06'0 0.0
2016-Aug-24 11:32N 39°59' W 075°06'0 0.0
2016-Aug-24 10:32N 39°59' W 075°06'0 0.0
2016-Aug-24 09:32N 39°59' W 075°06'0 0.0
2016-Aug-24 08:32N 39°59' W 075°06'0 0.0
2016-Aug-24 07:32N 39°59' W 075°06'0 0.0
2016-Aug-24 06:32N 39°59' W 075°06'0 0.0
2016-Aug-24 04:32N 39°59' W 075°06'0 0.0
2016-Aug-24 03:32N 39°59' W 075°06'0 0.0
2016-Aug-24 02:32N 39°59' W 075°06'0 0.0
2016-Aug-24 01:32N 39°59' W 075°06'0 0.0
2016-Aug-24 00:32N 39°59' W 075°06'0 0.0
2016-Aug-23 23:32N 39°59' W 075°06'0 0.0
2016-Aug-23 22:32N 39°59' W 075°06'0 0.0
2016-Aug-23 21:32N 39°59' W 075°06'0 0.0
2016-Aug-23 20:32N 39°59' W 075°06'0 0.0
2016-Aug-23 19:32N 39°59' W 075°06'0 0.0
2016-Aug-23 18:32N 39°59' W 075°06'0 0.0
2016-Aug-23 17:34N 39°59' W 075°06'0 0.0
2016-Aug-23 16:32N 39°59' W 075°06'0 0.0
2016-Aug-23 15:32N 39°59' W 075°06'0 0.0
2016-Aug-23 14:29N 39°59' W 075°06'0 0.0
2016-Aug-23 13:32N 39°59' W 075°06'0 0.0
2016-Aug-23 12:32N 39°59' W 075°06'0 0.0
2016-Aug-23 11:32N 39°59' W 075°06'0 0.0
2016-Aug-23 10:32N 39°59' W 075°06'0 0.0
2016-Aug-23 09:32N 39°59' W 075°06'0 0.0
2016-Aug-23 08:32N 39°59' W 075°06'0 0.0
2016-Aug-23 07:32N 39°59' W 075°06'0 0.0
2016-Aug-23 06:32N 39°59' W 075°06'0 0.3
2016-Aug-23 05:33N 39°58' W 075°06'5 4.7
2016-Aug-23 04:33N 39°54' W 075°08'7 6.5
2016-Aug-23 03:33N 39°51' W 075°15'8 8.2
2016-Aug-23 02:33N 39°48' W 075°25'9 9.2
2016-Aug-23 01:34N 39°40' W 075°32'8 8.1
2016-Aug-23 00:33N 39°32' W 075°33'8 8.4
2016-Aug-22 23:33N 39°24' W 075°30'1110.9
2016-Aug-22 22:33N 39°16' W 075°20'1211.6
2016-Aug-22 21:33N 39°06' W 075°12'1212.0
2016-Aug-22 20:32N 38°55' W 075°06'  
2016-Aug-20 15:33N 26°20' W 079°47'1918.8
2016-Aug-20 14:33N 26°01' W 079°49'1918.7
2016-Aug-20 13:33N 25°43' W 079°52'1918.5
2016-Aug-20 12:33N 25°25' W 079°57'  
2016-Aug-15 13:16N 29°21' W 094°47'912.3
2016-Aug-15 12:33N 29°29' W 094°52'1212.3
2016-Aug-15 11:33N 29°40' W 094°58'8 7.8
2016-Aug-15 10:33N 29°46' W 095°04'  
Track history (hours):
 
Tides and Currents Weather Stations Pressure Air Temp Water Temp Dewpoint Dewpoint Depression Visibility Wind Speed Wind Dir Waves Ship Positions

Seabulk Challenge

Owner: Seabulk Tankers, Inc., Fort Lauderdale, FL. More information available from US FCC via Universal Licensing System and Coast Guard Vessel Documentation Center.

Last reported at 2016-Aug-25 02:32 UTC. Time now 2016-Aug-25 02:48 UTC.
Position N 39°59' W 075°06'.

Length 192 m; draft 10.1 m.

Type: Tanker. MMSI: 303104000.

Date/timePositionNaut miles runAvg speedWind from/ knotsBaromVisibWave heightAir tempDewpointWater temp
2016-Aug-25 02:32N 39°59' W 075°06'0 0.0
2016-Aug-25 01:32N 39°59' W 075°06'0 0.0
2016-Aug-25 00:32N 39°59' W 075°06'0 0.0
2016-Aug-24 23:32N 39°59' W 075°06'0 0.0
2016-Aug-24 22:32N 39°59' W 075°06'0 0.0
2016-Aug-24 21:32N 39°59' W 075°06'0 0.0
2016-Aug-24 20:32N 39°59' W 075°06'0 0.0
2016-Aug-24 19:32N 39°59' W 075°06'0 0.0
2016-Aug-24 18:32N 39°59' W 075°06'0 0.0
2016-Aug-24 17:32N 39°59' W 075°06'0 0.0
2016-Aug-24 16:32N 39°59' W 075°06'0 0.0
2016-Aug-24 15:32N 39°59' W 075°06'0 0.0
2016-Aug-24 14:29N 39°59' W 075°06'0 0.0
2016-Aug-24 13:29N 39°59' W 075°06'0 0.0
2016-Aug-24 12:32N 39°59' W 075°06'0 0.0
2016-Aug-24 11:32N 39°59' W 075°06'0 0.0
2016-Aug-24 10:32N 39°59' W 075°06'0 0.0
2016-Aug-24 09:32N 39°59' W 075°06'0 0.0
2016-Aug-24 08:32N 39°59' W 075°06'0 0.0
2016-Aug-24 07:32N 39°59' W 075°06'0 0.0
2016-Aug-24 06:32N 39°59' W 075°06'0 0.0
2016-Aug-24 04:32N 39°59' W 075°06'0 0.0
2016-Aug-24 03:32N 39°59' W 075°06'0 0.0
2016-Aug-24 02:32N 39°59' W 075°06'0 0.0
2016-Aug-24 01:32N 39°59' W 075°06'0 0.0
2016-Aug-24 00:32N 39°59' W 075°06'0 0.0
2016-Aug-23 23:32N 39°59' W 075°06'0 0.0
2016-Aug-23 22:32N 39°59' W 075°06'0 0.0
2016-Aug-23 21:32N 39°59' W 075°06'0 0.0
2016-Aug-23 20:32N 39°59' W 075°06'0 0.0
2016-Aug-23 19:32N 39°59' W 075°06'0 0.0
2016-Aug-23 18:32N 39°59' W 075°06'0 0.0
2016-Aug-23 17:34N 39°59' W 075°06'0 0.0
2016-Aug-23 16:32N 39°59' W 075°06'0 0.0
2016-Aug-23 15:32N 39°59' W 075°06'0 0.0
2016-Aug-23 14:29N 39°59' W 075°06'0 0.0
2016-Aug-23 13:32N 39°59' W 075°06'0 0.0
2016-Aug-23 12:32N 39°59' W 075°06'0 0.0
2016-Aug-23 11:32N 39°59' W 075°06'0 0.0
2016-Aug-23 10:32N 39°59' W 075°06'0 0.0
2016-Aug-23 09:32N 39°59' W 075°06'0 0.0
2016-Aug-23 08:32N 39°59' W 075°06'0 0.0
2016-Aug-23 07:32N 39°59' W 075°06'0 0.0
2016-Aug-23 06:32N 39°59' W 075°06'0 0.3
2016-Aug-23 05:33N 39°58' W 075°06'5 4.7
2016-Aug-23 04:33N 39°54' W 075°08'7 6.5
2016-Aug-23 03:33N 39°51' W 075°15'8 8.2
2016-Aug-23 02:33N 39°48' W 075°25'9 9.2
2016-Aug-23 01:34N 39°40' W 075°32'8 8.1
2016-Aug-23 00:33N 39°32' W 075°33'8 8.4
2016-Aug-22 23:33N 39°24' W 075°30'1110.9
2016-Aug-22 22:33N 39°16' W 075°20'1211.6
2016-Aug-22 21:33N 39°06' W 075°12'1212.0
2016-Aug-22 20:32N 38°55' W 075°06'  
2016-Aug-20 15:33N 26°20' W 079°47'1918.8
2016-Aug-20 14:33N 26°01' W 079°49'1918.7
2016-Aug-20 13:33N 25°43' W 079°52'1918.5
2016-Aug-20 12:33N 25°25' W 079°57'  
2016-Aug-15 13:16N 29°21' W 094°47'912.3
2016-Aug-15 12:33N 29°29' W 094°52'1212.3
2016-Aug-15 11:33N 29°40' W 094°58'8 7.8
2016-Aug-15 10:33N 29°46' W 095°04'  

Dump ship's entire track history